Time;durP1;ratioP1;P1;durP2;ratioP2;P2;SDS_P1;SDS_P2;PMS_P1;PMS_P2;Temp;Humidity;BMP_temperature;BMP_pressure;BME280_temperature;BME280_humidity;BME280_pressure;Samples;Min_cycle;Max_cycle;Signal;HPM_P1;HPM_P2
2023/04/14 00:00:17;;;;;;;8.65;1.50;;;;;;;12.45;51.69;98200.34;5093824;28;20107;-48
2023/04/14 00:02:43;;;;;;;5.20;1.60;;;;;;;12.39;51.66;98196.81;5093737;28;20028;-48
2023/04/14 00:05:09;;;;;;;5.85;1.35;;;;;;;12.21;51.89;98190.75;5092516;28;20024;-48
2023/04/14 00:07:35;;;;;;;3.35;1.20;;;;;;;12.33;51.90;98199.50;5092402;28;20020;-48
2023/04/14 00:10:00;;;;;;;4.93;1.08;;;;;;;12.53;52.16;98197.38;5093643;28;20024;-48
2023/04/14 00:12:26;;;;;;;3.88;1.30;;;;;;;12.76;51.32;98203.75;5093560;28;20081;-48
2023/04/14 00:14:52;;;;;;;8.48;1.85;;;;;;;12.77;50.95;98203.50;5109205;28;20086;-48
2023/04/14 00:17:17;;;;;;;7.03;1.30;;;;;;;12.90;51.16;98197.25;5092957;28;20553;-47
2023/04/14 00:19:43;;;;;;;12.63;1.50;;;;;;;13.04;50.59;98203.13;5092135;28;20111;-48
2023/04/14 00:22:09;;;;;;;5.47;1.20;;;;;;;13.09;50.27;98199.78;5093434;28;20414;-48
2023/04/14 00:24:42;;;;;;;11.93;1.63;;;;;;;13.14;50.12;98199.91;5109289;28;20036;-48
2023/04/14 00:27:09;;;;;;;6.45;1.45;;;;;;;13.11;50.01;98205.63;5093353;28;20032;-48
2023/04/14 00:29:35;;;;;;;8.13;1.25;;;;;;;13.13;50.46;98206.19;5091848;28;20509;-48
2023/04/14 00:32:00;;;;;;;4.22;1.20;;;;;;;13.10;50.33;98202.19;5093123;28;20032;-48
2023/04/14 00:34:26;;;;;;;2.83;0.85;;;;;;;13.01;50.49;98200.13;5093160;28;20024;-48
2023/04/14 00:36:52;;;;;;;5.35;2.10;;;;;;;13.05;50.60;98201.28;5108722;28;20028;-48
2023/04/14 00:39:17;;;;;;;6.03;2.85;;;;;;;12.99;50.50;98202.97;5108724;28;20028;-48
2023/04/14 00:41:43;;;;;;;11.07;5.35;;;;;;;12.97;50.89;98200.56;5092983;28;20032;-48
2023/04/14 00:44:09;;;;;;;7.70;3.08;;;;;;;12.99;50.57;98198.50;5092996;28;20031;-48
2023/04/14 00:46:35;;;;;;;322.45;150.63;;;;;;;13.03;50.76;98200.69;5108510;28;20031;-49
2023/04/14 00:49:02;;;;;;;431.27;295.52;;;;;;;12.94;50.63;98195.75;5091532;28;20070;-48
2023/04/14 00:51:28;;;;;;;1059.13;630.33;;;;;;;12.76;51.00;98199.28;5091557;28;20541;-48
2023/04/14 00:53:55;;;;;;;791.60;709.00;;;;;;;12.62;50.90;98199.72;5092743;28;20031;-48
2023/04/14 00:56:22;;;;;;;1999.90;999.90;;;;;;;12.49;52.37;98204.13;5091377;28;20220;-48
2023/04/14 00:58:51;;;;;;;1936.15;999.35;;;;;;;12.78;54.39;98201.69;5092499;28;20077;-48
2023/04/14 01:01:17;;;;;;;1881.38;999.90;;;;;;;13.38;54.15;98198.06;5091354;28;20035;-48
2023/04/14 01:03:43;;;;;;;1999.90;999.90;;;;;;;13.90;52.57;98195.47;5092536;28;20039;-48
2023/04/14 01:06:08;;;;;;;1007.58;818.22;;;;;;;14.17;50.86;98200.22;5091252;28;20039;-48
2023/04/14 01:08:34;;;;;;;414.05;368.17;;;;;;;14.17;49.74;98201.03;5092613;28;20147;-46
2023/04/14 01:11:15;;;;;;;174.10;142.43;;;;;;;14.09;48.88;98200.59;5092433;28;20020;-46
2023/04/14 01:14:30;;;;;;;150.70;126.20;;;;;;;13.75;48.76;98203.09;5091181;28;20036;-46
2023/04/14 01:17:05;;;;;;;100.57;73.30;;;;;;;13.32;48.88;98205.09;5090420;28;20040;-46
2023/04/14 01:20:08;;;;;;;65.60;51.13;;;;;;;12.98;50.28;98214.56;5091161;28;20062;-46
2023/04/14 01:22:43;;;;;;;64.90;50.28;;;;;;;12.91;50.48;98217.28;5053028;28;20025;-48
2023/04/14 01:25:27;;;;;;;32.00;20.73;;;;;;;13.02;50.34;98212.25;5053122;28;20119;-48
2023/04/14 01:28:30;;;;;;;65.88;39.97;;;;;;;13.07;50.03;98212.38;5069128;28;20099;-48
2023/04/14 01:31:23;;;;;;;28.58;20.35;;;;;;;12.96;49.62;98206.88;5053017;28;20453;-48
2023/04/14 01:33:58;;;;;;;25.58;15.82;;;;;;;12.85;50.27;98209.50;5069722;28;20525;-48
2023/04/14 01:36:33;;;;;;;16.55;10.77;;;;;;;12.72;50.20;98213.13;5069745;28;20028;-48
2023/04/14 01:39:04;;;;;;;15.90;11.70;;;;;;;12.52;49.94;98211.59;5069639;28;20044;-49
2023/04/14 01:41:33;;;;;;;27.48;15.68;;;;;;;12.43;50.52;98222.66;5069718;28;20075;-48
2023/04/14 01:44:00;;;;;;;25.35;14.40;;;;;;;12.31;50.57;98220.75;5052750;28;20413;-48
2023/04/14 01:46:26;;;;;;;37.38;22.30;;;;;;;11.98;50.95;98216.75;5069611;28;20040;-48
2023/04/14 01:48:53;;;;;;;20.17;12.20;;;;;;;11.90;51.48;98219.66;5052744;28;20048;-48
2023/04/14 01:51:21;;;;;;;12.73;8.52;;;;;;;11.82;51.86;98222.56;5052639;28;20040;-48
2023/04/14 01:53:49;;;;;;;7.88;3.95;;;;;;;11.88;51.63;98218.25;5052723;28;20079;-48
2023/04/14 01:56:17;;;;;;;7.70;3.22;;;;;;;11.82;51.59;98222.56;5069493;28;20047;-48
2023/04/14 01:58:46;;;;;;;7.47;2.97;;;;;;;11.82;51.64;98225.19;5086532;28;20071;-48
2023/04/14 02:01:13;;;;;;;6.55;2.53;;;;;;;11.85;51.38;98229.19;5091795;28;20044;-48
2023/04/14 02:03:39;;;;;;;14.52;5.47;;;;;;;11.84;51.66;98220.50;5091843;28;20490;-48
2023/04/14 02:06:07;;;;;;;8.27;2.88;;;;;;;11.78;51.62;98222.19;5092064;28;20028;-48
2023/04/14 02:08:36;;;;;;;5.68;2.20;;;;;;;11.79;51.78;98223.81;5107430;28;20024;-48
2023/04/14 02:11:03;;;;;;;10.40;3.03;;;;;;;11.63;51.47;98221.78;5091663;28;20028;-48
2023/04/14 02:13:31;;;;;;;4.78;1.83;;;;;;;11.48;52.03;98219.47;5073711;28;20032;-48
2023/04/14 02:15:57;;;;;;;3.95;2.65;;;;;;;11.42;52.87;98219.56;5091696;28;20391;-48
2023/04/14 02:18:25;;;;;;;4.95;2.60;;;;;;;11.47;53.18;98222.31;5107346;28;20410;-48
2023/04/14 02:20:53;;;;;;;10.63;3.08;;;;;;;11.55;52.94;98216.78;5090410;28;20144;-48
2023/04/14 02:23:19;;;;;;;7.25;2.10;;;;;;;11.64;53.25;98218.09;5091665;28;20490;-48
2023/04/14 02:25:55;;;;;;;20.77;3.17;;;;;;;11.82;52.98;98219.94;5107290;28;20031;-48
2023/04/14 02:28:26;;;;;;;19.35;3.03;;;;;;;11.90;52.84;98221.50;5107328;28;20057;-48
2023/04/14 02:30:55;;;;;;;14.00;3.40;;;;;;;11.97;52.37;98220.41;5107025;28;20055;-48
2023/04/14 02:33:26;;;;;;;9.23;2.80;;;;;;;12.02;52.75;98214.47;5091626;28;20485;-49
2023/04/14 02:36:03;;;;;;;5.57;1.80;;;;;;;12.12;52.05;98214.75;5091448;28;20028;-48
2023/04/14 02:38:38;;;;;;;10.98;2.72;;;;;;;11.99;52.78;98220.16;5091550;28;20025;-48
2023/04/14 02:41:28;;;;;;;4.82;1.58;;;;;;;11.95;52.55;98216.38;5095433;28;20031;-48
2023/04/14 02:44:13;;;;;;;4.28;0.85;;;;;;;11.87;52.21;98209.56;5094282;28;20107;-48
2023/04/14 02:46:50;;;;;;;3.10;1.30;;;;;;;11.75;52.26;98208.69;5110949;28;20032;-48
2023/04/14 02:49:17;;;;;;;6.10;1.10;;;;;;;11.72;52.58;98212.56;5111002;28;20052;-48
2023/04/14 02:51:45;;;;;;;5.05;1.20;;;;;;;11.76;52.68;98202.41;5076888;28;20081;-48
2023/04/14 02:54:13;;;;;;;2.88;1.08;;;;;;;11.79;52.65;98213.28;5095100;28;20031;-48
2023/04/14 02:56:39;;;;;;;6.60;1.17;;;;;;;11.77;52.33;98209.25;5095008;28;20160;-48
2023/04/14 02:59:06;;;;;;;2.65;1.10;;;;;;;11.74;52.68;98214.97;5110608;28;20038;-48
2023/04/14 03:01:32;;;;;;;3.00;0.77;;;;;;;11.65;52.82;98224.97;5094956;28;20397;-48
2023/04/14 03:03:59;;;;;;;4.03;1.23;;;;;;;11.63;52.69;98218.31;5094970;28;20035;-48
2023/04/14 03:06:26;;;;;;;3.88;0.90;;;;;;;11.63;52.76;98210.44;5095156;28;20024;-48
2023/04/14 03:08:54;;;;;;;5.68;0.80;;;;;;;11.70;53.03;98219.84;5110497;28;20056;-48
2023/04/14 03:11:21;;;;;;;4.45;1.17;;;;;;;11.75;52.96;98214.75;5094812;28;20084;-48
2023/04/14 03:13:52;;;;;;;5.30;1.00;;;;;;;11.83;52.99;98215.47;5094731;28;20482;-48
2023/04/14 03:16:20;;;;;;;6.68;1.10;;;;;;;11.81;52.98;98213.06;5094800;28;20040;-48
2023/04/14 03:18:50;;;;;;;8.27;1.10;;;;;;;11.87;52.70;98206.13;5093280;28;20135;-48
2023/04/14 03:21:18;;;;;;;3.50;0.82;;;;;;;11.86;52.25;98210.59;5093303;28;20028;-48
2023/04/14 03:23:45;;;;;;;2.20;0.70;;;;;;;11.79;52.10;98210.66;5110136;28;20525;-48
2023/04/14 03:26:17;;;;;;;4.93;0.60;;;;;;;11.62;52.37;98211.47;5110144;28;20039;-48
2023/04/14 03:28:47;;;;;;;2.42;0.40;;;;;;;11.51;52.24;98215.59;5094251;28;20493;-48
2023/04/14 03:31:15;;;;;;;1.33;0.63;;;;;;;11.30;52.57;98209.75;5094453;28;20024;-48
2023/04/14 03:33:44;;;;;;;2.80;0.60;;;;;;;11.13;52.89;98200.81;5110025;28;20019;-48
2023/04/14 03:36:11;;;;;;;2.58;0.55;;;;;;;11.13;53.14;98201.63;5093084;28;20031;-48
2023/04/14 03:38:38;;;;;;;2.53;0.60;;;;;;;11.16;52.98;98206.44;5109913;28;20020;-48
2023/04/14 03:41:06;;;;;;;2.58;0.80;;;;;;;11.11;53.24;98202.88;5094450;28;20072;-48
2023/04/14 03:43:35;;;;;;;2.63;1.23;;;;;;;11.14;53.69;98199.78;5094199;28;20028;-48
2023/04/14 03:46:04;;;;;;;3.65;0.98;;;;;;;11.13;53.37;98204.25;5109866;28;20020;-48
2023/04/14 03:48:33;;;;;;;1.15;0.40;;;;;;;11.15;52.99;98196.16;5109787;28;20028;-48
2023/04/14 03:51:01;;;;;;;1.02;0.50;;;;;;;11.10;53.35;98194.16;5108891;28;20060;-48
2023/04/14 03:53:30;;;;;;;3.40;0.70;;;;;;;11.03;53.24;98193.44;5109680;28;20028;-48
2023/04/14 03:55:58;;;;;;;1.08;0.65;;;;;;;11.00;53.50;98201.72;5075801;28;20527;-49
2023/04/14 03:58:27;;;;;;;4.15;1.00;;;;;;;11.10;54.41;98194.16;5092545;28;20032;-48
2023/04/14 04:00:53;;;;;;;7.90;0.75;;;;;;;11.08;54.70;98192.78;5109532;28;20024;-48
2023/04/14 04:03:21;;;;;;;3.05;1.30;;;;;;;11.10;55.92;98188.13;5109394;28;20032;-48
2023/04/14 04:05:48;;;;;;;2.15;0.98;;;;;;;11.17;55.44;98187.03;5093669;28;20051;-48
2023/04/14 04:08:14;;;;;;;10.07;1.10;;;;;;;11.16;55.50;98197.75;5109428;28;20020;-48
2023/04/14 04:10:42;;;;;;;2.40;0.80;;;;;;;10.99;55.30;98206.19;5093572;28;20030;-48
2023/04/14 04:13:12;;;;;;;4.05;0.80;;;;;;;10.87;55.67;98207.09;5109321;28;20046;-48
2023/04/14 04:15:39;;;;;;;10.18;1.00;;;;;;;10.78;56.79;98202.13;5093525;28;20028;-48
2023/04/14 04:18:07;;;;;;;5.53;0.65;;;;;;;10.82;57.32;98197.22;5109181;28;20036;-48
2023/04/14 04:20:36;;;;;;;5.47;0.90;;;;;;;10.72;58.88;98202.94;5093468;28;20035;-48
2023/04/14 04:23:03;;;;;;;5.97;1.20;;;;;;;10.65;60.23;98201.41;5109077;28;20109;-48
2023/04/14 04:25:31;;;;;;;6.47;0.65;;;;;;;10.62;62.30;98200.00;5093653;28;20039;-48
2023/04/14 04:27:59;;;;;;;5.00;0.80;;;;;;;10.63;63.88;98211.31;5093378;28;20020;-48
2023/04/14 04:30:28;;;;;;;4.28;0.55;;;;;;;10.66;64.54;98208.25;5108840;28;20422;-48
2023/04/14 04:32:54;;;;;;;8.20;1.40;;;;;;;10.41;64.84;98209.00;5093216;28;20024;-48
2023/04/14 04:35:22;;;;;;;7.20;0.82;;;;;;;10.36;66.18;98208.81;5091963;28;20096;-48
2023/04/14 04:37:49;;;;;;;6.82;1.05;;;;;;;10.46;66.89;98203.91;5093038;28;20056;-48
2023/04/14 04:40:15;;;;;;;8.13;1.25;;;;;;;10.57;67.80;98213.75;5108789;28;20045;-48
2023/04/14 04:42:42;;;;;;;3.28;0.85;;;;;;;10.68;67.66;98212.25;5108712;28;20405;-48
2023/04/14 04:45:08;;;;;;;7.10;1.13;;;;;;;10.76;67.57;98213.81;5108608;28;20031;-48
2023/04/14 04:47:34;;;;;;;3.83;0.70;;;;;;;10.80;67.61;98220.25;5091619;28;20020;-48
2023/04/14 04:49:59;;;;;;;3.92;1.13;;;;;;;10.72;68.20;98215.25;5092955;28;20023;-48
2023/04/14 04:52:25;;;;;;;2.67;0.70;;;;;;;10.66;67.81;98213.50;5108544;28;20028;-48
2023/04/14 04:54:51;;;;;;;1.48;0.50;;;;;;;10.66;67.32;98213.50;5108557;28;20191;-48
2023/04/14 04:57:18;;;;;;;2.70;0.88;;;;;;;10.64;67.91;98212.91;5108375;28;20114;-48
2023/04/14 04:59:43;;;;;;;3.13;0.90;;;;;;;10.65;67.93;98211.91;5092754;28;20193;-48
2023/04/14 05:02:09;;;;;;;3.92;1.02;;;;;;;10.70;68.37;98212.84;5108276;28;20122;-48
2023/04/14 05:04:35;;;;;;;1.63;1.05;;;;;;;10.61;66.65;98210.72;5108330;28;20042;-48
2023/04/14 05:07:02;;;;;;;2.30;0.63;;;;;;;10.41;66.76;98202.97;5108239;28;20024;-48
2023/04/14 05:09:28;;;;;;;6.97;1.10;;;;;;;10.30;67.50;98209.66;5091202;28;20027;-48
2023/04/14 05:11:53;;;;;;;5.68;1.00;;;;;;;10.30;68.08;98215.75;5091298;28;20389;-49
2023/04/14 05:14:19;;;;;;;6.57;1.15;;;;;;;10.28;68.08;98214.28;5108159;28;20058;-48
2023/04/14 05:16:46;;;;;;;6.63;1.25;;;;;;;10.23;68.58;98212.31;5108371;28;20031;-49
2023/04/14 05:19:12;;;;;;;12.02;1.27;;;;;;;10.31;68.53;98208.66;5107972;28;20032;-49
2023/04/14 05:21:37;;;;;;;10.07;1.05;;;;;;;10.46;68.63;98206.53;5107948;28;20498;-48
2023/04/14 05:24:04;;;;;;;5.18;0.80;;;;;;;10.55;67.43;98202.66;5092409;28;20031;-48
2023/04/14 05:26:30;;;;;;;8.10;1.27;;;;;;;10.51;65.68;98206.72;5092300;28;20028;-49
2023/04/14 05:28:55;;;;;;;40.13;3.38;;;;;;;10.49;66.21;98207.97;5107740;28;20052;-49
2023/04/14 05:31:21;;;;;;;12.18;1.77;;;;;;;10.57;65.52;98205.88;5092178;28;20028;-49
2023/04/14 05:33:47;;;;;;;9.70;2.05;;;;;;;10.59;64.79;98206.47;5107848;28;20485;-48
2023/04/14 05:36:13;;;;;;;9.98;3.80;;;;;;;10.59;64.04;98208.28;5107804;28;20032;-48
2023/04/14 05:38:39;;;;;;;114.05;102.90;;;;;;;10.54;64.10;98208.94;5107671;28;20375;-48
2023/04/14 05:41:06;;;;;;;91.10;80.47;;;;;;;10.54;64.06;98211.56;5092122;28;20080;-48
2023/04/14 05:43:31;;;;;;;56.63;43.95;;;;;;;10.56;63.01;98208.72;5091961;28;20036;-49
2023/04/14 05:45:57;;;;;;;1678.68;999.90;;;;;;;10.56;62.77;98206.91;5090673;28;20425;-48
2023/04/14 05:48:26;;;;;;;437.40;371.20;;;;;;;10.70;62.80;98206.81;5090650;28;20397;-48
2023/04/14 05:50:52;;;;;;;182.40;161.77;;;;;;;10.91;61.80;98203.81;5091857;28;20032;-48
2023/04/14 05:53:17;;;;;;;122.97;105.45;;;;;;;11.09;61.01;98202.28;5091959;28;20108;-48
2023/04/14 05:55:44;;;;;;;31.75;20.75;;;;;;;11.28;59.90;98203.09;5091918;28;20047;-49
2023/04/14 05:58:11;;;;;;;15.70;11.27;;;;;;;11.53;58.94;98196.00;5091877;28;20031;-48
2023/04/14 06:00:37;;;;;;;4.45;3.80;;;;;;;11.77;58.01;98211.88;5090538;28;20031;-49
2023/04/14 06:03:02;;;;;;;12.82;9.18;;;;;;;11.97;57.63;98209.06;5091837;28;20401;-49
2023/04/14 06:05:28;;;;;;;12.50;8.68;;;;;;;12.32;59.00;98206.59;5090526;28;20024;-49
2023/04/14 06:07:54;;;;;;;17.60;6.47;;;;;;;12.76;59.07;98215.09;5091795;28;20061;-49
2023/04/14 06:10:20;;;;;;;20.10;4.90;;;;;;;13.29;58.46;98202.91;5107424;28;20173;-49
2023/04/14 06:12:45;;;;;;;6.25;3.22;;;;;;;13.68;57.43;98210.31;5107496;28;20028;-49
2023/04/14 06:15:11;;;;;;;3.78;1.98;;;;;;;14.19;56.77;98204.22;5094441;28;20032;-46
2023/04/14 06:17:38;;;;;;;9.32;2.50;;;;;;;14.62;55.40;98209.22;5111460;28;20142;-46
2023/04/14 06:20:05;;;;;;;31.17;4.18;;;;;;;14.79;54.06;98207.41;5111511;28;20378;-46
2023/04/14 06:22:31;;;;;;;13.77;2.83;;;;;;;14.81;53.32;98207.16;5095780;28;20406;-46
2023/04/14 06:24:57;;;;;;;18.63;4.80;;;;;;;14.85;52.72;98201.19;5095775;28;20028;-46
2023/04/14 06:27:23;;;;;;;10.93;2.17;;;;;;;14.90;51.11;98206.53;5111418;28;20035;-46
2023/04/14 06:29:50;;;;;;;6.80;1.45;;;;;;;14.70;49.08;98203.56;5111194;28;20048;-46
2023/04/14 06:32:17;;;;;;;7.47;1.25;;;;;;;14.43;48.40;98203.31;5111241;28;20039;-46
2023/04/14 06:34:43;;;;;;;10.63;1.40;;;;;;;14.19;48.57;98198.94;5094351;28;20032;-46
2023/04/14 06:37:09;;;;;;;24.50;2.55;;;;;;;14.01;49.95;98193.06;5111227;28;20082;-46
2023/04/14 06:39:35;;;;;;;13.63;1.60;;;;;;;14.20;50.21;98202.38;5095557;28;20394;-46
2023/04/14 06:42:01;;;;;;;31.98;3.75;;;;;;;14.44;49.07;98197.78;5111144;28;20482;-46
2023/04/14 06:44:27;;;;;;;26.90;2.47;;;;;;;14.60;49.14;98204.19;5111025;28;20028;-46
2023/04/14 06:46:53;;;;;;;15.60;1.90;;;;;;;14.99;48.37;98206.94;5110959;28;20039;-47
2023/04/14 06:49:20;;;;;;;30.67;2.55;;;;;;;15.08;46.86;98205.47;5095256;28;20024;-46
2023/04/14 06:51:45;;;;;;;11.02;1.17;;;;;;;14.94;46.38;98206.84;5095171;28;20039;-47
2023/04/14 06:54:11;;;;;;;12.63;2.13;;;;;;;14.75;47.29;98207.09;5093864;28;20036;-46
2023/04/14 06:56:37;;;;;;;13.27;1.50;;;;;;;14.86;47.20;98194.84;5110819;28;20213;-47
2023/04/14 06:59:02;;;;;;;10.82;1.45;;;;;;;15.04;46.05;98196.44;5095037;28;20027;-46
2023/04/14 07:01:28;;;;;;;18.10;2.08;;;;;;;15.16;45.11;98193.72;5094983;28;20059;-46
2023/04/14 07:03:54;;;;;;;22.88;2.20;;;;;;;15.45;44.00;98190.94;5110711;28;20035;-46
2023/04/14 07:06:20;;;;;;;37.70;2.88;;;;;;;15.65;43.36;98188.56;5095195;28;20028;-46
2023/04/14 07:08:47;;;;;;;35.78;2.53;;;;;;;15.93;43.13;98184.16;5094879;28;20504;-46
2023/04/14 07:11:12;;;;;;;40.42;3.28;;;;;;;16.32;42.55;98187.50;5093496;28;20031;-46
2023/04/14 07:13:40;;;;;;;24.45;2.47;;;;;;;16.62;41.73;98182.72;5095013;28;20031;-46
2023/04/14 07:16:06;;;;;;;66.30;4.18;;;;;;;16.55;41.68;98173.13;5110418;28;20074;-46
2023/04/14 07:18:32;;;;;;;40.67;2.50;;;;;;;16.75;41.48;98164.56;5076435;28;20117;-46
2023/04/14 07:20:59;;;;;;;20.45;1.85;;;;;;;17.19;40.64;98166.22;5110352;28;20078;-46
2023/04/14 07:23:26;;;;;;;13.50;1.25;;;;;;;17.48;39.89;98168.50;5094518;28;20035;-46
2023/04/14 07:25:53;;;;;;;6.38;1.10;;;;;;;16.93;38.98;98170.56;5108894;28;20054;-46
2023/04/14 07:28:23;;;;;;;5.30;1.20;;;;;;;16.45;40.31;98170.41;5094483;28;20038;-46
2023/04/14 07:30:51;;;;;;;14.38;2.15;;;;;;;16.60;40.06;98163.63;5109895;28;20508;-46
2023/04/14 07:33:18;;;;;;;15.85;1.55;;;;;;;16.78;40.01;98165.88;5093080;28;20031;-46
2023/04/14 07:35:48;;;;;;;9.38;1.48;;;;;;;17.17;39.63;98165.69;5094424;28;20132;-46
2023/04/14 07:38:14;;;;;;;9.32;1.45;;;;;;;17.88;38.92;98159.94;5109932;28;20036;-46
2023/04/14 07:40:40;;;;;;;10.07;1.67;;;;;;;19.72;36.79;98156.47;5076056;28;20031;-46
2023/04/14 07:43:06;;;;;;;10.75;1.60;;;;;;;21.80;33.76;98147.28;5110179;28;20107;-44
2023/04/14 07:45:32;;;;;;;10.48;1.40;;;;;;;24.00;30.56;98137.41;5109739;28;20225;-44
2023/04/14 07:47:58;;;;;;;7.57;1.00;;;;;;;25.10;27.44;98130.75;5094173;28;20089;-44
2023/04/14 07:50:24;;;;;;;34.40;3.08;;;;;;;25.25;27.05;98133.06;5109731;28;20027;-44
2023/04/14 07:52:50;;;;;;;45.05;2.67;;;;;;;26.45;26.07;98127.38;5075948;28;20493;-45
2023/04/14 07:55:16;;;;;;;24.17;1.58;;;;;;;28.08;24.33;98109.25;5075800;28;20036;-45
2023/04/14 07:57:42;;;;;;;28.33;2.30;;;;;;;28.66;22.06;98122.13;5093844;28;20028;-45
2023/04/14 08:00:11;;;;;;;27.23;1.98;;;;;;;28.43;22.23;98124.34;5093908;28;20031;-45
2023/04/14 08:02:37;;;;;;;9.90;1.15;;;;;;;28.23;22.41;98124.06;5109483;28;20020;-45
2023/04/14 08:05:03;;;;;;;33.13;2.25;;;;;;;26.83;22.46;98126.69;5109409;28;20034;-45
2023/04/14 08:07:29;;;;;;;15.50;1.55;;;;;;;26.11;24.42;98137.03;5093703;28;20074;-45
2023/04/14 08:09:55;;;;;;;34.35;2.55;;;;;;;26.34;23.58;98134.22;5093723;28;20024;-44
2023/04/14 08:12:21;;;;;;;17.15;1.67;;;;;;;26.49;23.25;98117.56;5109272;28;20504;-45
2023/04/14 08:14:46;;;;;;;8.00;1.60;;;;;;;26.68;23.28;98124.50;5093615;28;20028;-45
2023/04/14 08:17:13;;;;;;;15.98;1.60;;;;;;;25.79;23.04;98127.50;5109212;28;20136;-45
2023/04/14 08:19:39;;;;;;;53.60;3.25;;;;;;;23.29;25.67;98130.50;5109138;28;20074;-45
2023/04/14 08:22:05;;;;;;;42.45;3.63;;;;;;;23.04;27.41;98122.94;5109096;28;20032;-44
2023/04/14 08:24:30;;;;;;;19.98;1.40;;;;;;;24.89;25.24;98125.13;5093333;28;20387;-45
2023/04/14 08:26:56;;;;;;;14.32;1.38;;;;;;;26.54;22.60;98108.53;5092162;28;20032;-45
2023/04/14 08:29:22;;;;;;;13.05;1.50;;;;;;;25.63;22.35;98115.63;5093239;28;20051;-44
2023/04/14 08:31:48;;;;;;;37.67;2.33;;;;;;;23.90;24.34;98116.97;5093187;28;20101;-45
2023/04/14 08:34:14;;;;;;;24.42;2.22;;;;;;;22.01;27.70;98116.53;5093216;28;20030;-44
2023/04/14 08:36:40;;;;;;;22.58;1.42;;;;;;;21.05;28.45;98121.97;5091497;28;20050;-44
2023/04/14 08:39:06;;;;;;;8.98;1.08;;;;;;;21.46;28.22;98122.31;5108732;28;20855;-44
2023/04/14 08:41:38;;;;;;;20.15;2.10;;;;;;;21.37;28.05;98123.19;5109027;28;20032;-44
2023/04/14 08:44:04;;;;;;;10.38;1.00;;;;;;;21.30;28.09;98128.88;5093338;28;20116;-44
2023/04/14 08:46:30;;;;;;;9.40;1.38;;;;;;;20.82;28.72;98132.28;5108584;28;20115;-44
2023/04/14 08:49:07;;;;;;;19.52;2.33;;;;;;;21.32;28.86;98130.19;5108867;28;20034;-44
2023/04/14 08:51:42;;;;;;;10.15;1.38;;;;;;;23.23;27.07;98115.63;5108503;28;20111;-44
2023/04/14 08:54:10;;;;;;;3.58;0.98;;;;;;;24.92;24.70;98117.25;5092848;28;20024;-45
2023/04/14 08:56:38;;;;;;;8.23;0.90;;;;;;;26.28;23.36;98100.50;5074772;28;20046;-45
2023/04/14 08:59:07;;;;;;;6.50;0.93;;;;;;;26.79;22.34;98085.38;5092679;28;20042;-45
2023/04/14 09:01:33;;;;;;;2.95;0.70;;;;;;;26.61;22.08;98089.25;5092651;28;20035;-45
2023/04/14 09:04:02;;;;;;;3.33;0.70;;;;;;;27.29;21.70;98076.63;5091381;28;20024;-45
2023/04/14 09:06:29;;;;;;;7.45;0.70;;;;;;;28.42;20.58;98083.09;5092599;28;20357;-45
2023/04/14 09:08:54;;;;;;;9.68;0.98;;;;;;;28.78;19.79;98078.16;5092645;28;20095;-45
2023/04/14 09:11:21;;;;;;;8.57;1.00;;;;;;;28.99;19.39;98081.53;5092473;28;20469;-45
2023/04/14 09:13:48;;;;;;;4.20;0.90;;;;;;;28.37;19.36;98079.81;5092502;28;20123;-45
2023/04/14 09:16:16;;;;;;;3.08;0.98;;;;;;;26.92;20.90;98086.28;5108094;28;20059;-45
2023/04/14 09:18:42;;;;;;;5.22;0.88;;;;;;;26.12;21.85;98081.38;5092362;28;20089;-45
2023/04/14 09:21:10;;;;;;;9.43;1.20;;;;;;;26.43;21.81;98075.78;5107929;28;20028;-45
2023/04/14 09:23:40;;;;;;;7.40;1.17;;;;;;;27.04;20.83;98070.22;5092276;28;20020;-45
2023/04/14 09:26:09;;;;;;;32.75;2.50;;;;;;;27.73;19.95;98070.97;5092748;28;20436;-45
2023/04/14 09:28:35;;;;;;;100.57;6.50;;;;;;;27.38;20.47;98075.78;5090745;28;20016;-45
2023/04/14 09:31:02;;;;;;;22.75;2.00;;;;;;;27.29;19.96;98076.63;5090958;28;20052;-45
2023/04/14 09:33:28;;;;;;;125.05;8.45;;;;;;;26.72;20.22;98071.63;5090875;28;20500;-45
2023/04/14 09:35:54;;;;;;;87.63;7.32;;;;;;;24.56;21.89;98082.47;5092132;28;20036;-45
2023/04/14 09:38:37;;;;;;;47.80;3.75;;;;;;;24.52;22.93;98076.16;5107683;28;20028;-45
2023/04/14 09:41:05;;;;;;;15.90;1.50;;;;;;;25.45;21.60;98069.09;5090874;28;20024;-45
2023/04/14 09:43:31;;;;;;;18.63;2.10;;;;;;;26.30;20.90;98066.00;5107662;28;20097;-45
2023/04/14 09:46:03;;;;;;;37.13;2.58;;;;;;;27.32;20.96;98066.31;5091998;28;20031;-45
2023/04/14 09:48:29;;;;;;;27.63;2.03;;;;;;;26.10;20.76;98054.78;5107099;28;20021;-45
2023/04/14 09:50:59;;;;;;;22.50;2.05;;;;;;;24.95;22.70;98064.03;5091782;28;20038;-45
2023/04/14 09:53:26;;;;;;;6.40;1.85;;;;;;;23.85;23.68;98058.94;5091940;28;20104;-45
2023/04/14 09:55:52;;;;;;;9.82;0.95;;;;;;;23.17;24.29;98068.63;5107509;28;20052;-45
2023/04/14 09:58:21;;;;;;;5.30;0.73;;;;;;;23.67;24.05;98057.97;5107458;28;20086;-45
2023/04/14 10:00:48;;;;;;;1.83;0.50;;;;;;;23.84;23.16;98053.88;5107512;28;20023;-45
2023/04/14 10:03:14;;;;;;;4.38;0.70;;;;;;;23.37;23.69;98050.59;5090638;28;20056;-45
2023/04/14 10:05:48;;;;;;;3.97;0.85;;;;;;;23.20;24.01;98049.31;5107467;28;20112;-45
2023/04/14 10:08:14;;;;;;;8.30;1.17;;;;;;;23.41;24.18;98048.91;5107478;28;20038;-45
2023/04/14 10:10:40;;;;;;;5.38;0.80;;;;;;;23.92;23.91;98050.47;5091730;28;20032;-45
2023/04/14 10:13:07;;;;;;;9.07;1.20;;;;;;;23.91;23.93;98049.69;5091722;28;20032;-45
2023/04/14 10:15:33;;;;;;;4.45;0.80;;;;;;;25.06;23.00;98051.94;5107391;28;20114;-45
2023/04/14 10:17:59;;;;;;;6.78;1.00;;;;;;;26.06;21.91;98040.41;5091561;28;20039;-45
2023/04/14 10:20:25;;;;;;;8.65;1.58;;;;;;;25.71;21.60;98036.88;5091588;28;20043;-45
2023/04/14 10:22:53;;;;;;;2.97;1.30;;;;;;;25.24;22.01;98037.47;5091943;28;20482;-45
2023/04/14 10:25:19;;;;;;;5.82;0.82;;;;;;;24.66;22.72;98028.56;5107238;28;20040;-45
2023/04/14 10:27:46;;;;;;;6.07;0.90;;;;;;;24.28;22.74;98022.81;5091612;28;20028;-45
2023/04/14 10:30:12;;;;;;;5.55;0.65;;;;;;;23.67;23.46;98020.47;5091430;28;20076;-45
2023/04/14 10:32:39;;;;;;;63.47;3.65;;;;;;;22.94;24.09;98020.34;5107231;28;20234;-45
2023/04/14 10:35:06;;;;;;;28.63;2.50;;;;;;;22.50;24.24;98019.03;5090224;28;20051;-45
2023/04/14 10:37:32;;;;;;;32.80;3.17;;;;;;;22.40;24.83;98015.75;5091333;28;20039;-45
2023/04/14 10:40:00;;;;;;;27.08;1.65;;;;;;;22.19;23.96;98015.25;5107192;28;20020;-45
2023/04/14 10:42:31;;;;;;;49.35;3.38;;;;;;;22.02;24.46;98005.13;5091467;28;20028;-45
2023/04/14 10:45:07;;;;;;;11.30;1.15;;;;;;;22.11;24.15;97993.47;5091516;28;20020;-45
2023/04/14 10:47:34;;;;;;;5.93;0.90;;;;;;;22.16;23.73;97995.25;5090199;28;20042;-45
2023/04/14 10:50:11;;;;;;;8.25;0.93;;;;;;;21.45;24.22;97995.28;5107070;28;20024;-45
2023/04/14 10:52:38;;;;;;;6.20;0.80;;;;;;;21.10;25.41;98002.59;5107131;28;20032;-45
2023/04/14 10:55:08;;;;;;;11.10;0.90;;;;;;;20.99;25.39;98000.34;5107017;28;20028;-45
2023/04/14 10:57:42;;;;;;;10.65;1.08;;;;;;;21.13;25.05;97990.59;5091332;28;20020;-45
2023/04/14 11:00:24;;;;;;;4.55;0.60;;;;;;;21.22;25.45;97972.84;5107782;28;20032;-45
2023/04/14 11:03:11;;;;;;;12.98;1.30;;;;;;;21.59;25.88;97973.97;5095082;28;20032;-45
2023/04/14 11:05:51;;;;;;;13.07;2.47;;;;;;;22.17;25.34;97963.97;5093812;28;20039;-45
2023/04/14 11:08:35;;;;;;;17.17;1.80;;;;;;;22.44;25.29;97969.41;5110534;28;20082;-45
2023/04/14 11:11:03;;;;;;;18.67;1.98;;;;;;;22.48;24.78;97962.38;5110597;28;20028;-45
2023/04/14 11:13:30;;;;;;;6.32;0.90;;;;;;;22.24;24.85;97964.41;5095176;28;20028;-45
2023/04/14 11:16:04;;;;;;;15.77;1.10;;;;;;;21.97;25.19;97957.88;5093500;28;20037;-45
2023/04/14 11:18:31;;;;;;;22.15;2.10;;;;;;;21.68;25.42;97966.09;5094650;28;20171;-45
2023/04/14 11:21:08;;;;;;;21.13;1.77;;;;;;;21.43;25.65;97964.59;5094958;28;20028;-45
2023/04/14 11:23:35;;;;;;;10.32;1.85;;;;;;;21.19;26.15;97973.44;5094684;28;20047;-45
2023/04/14 11:26:03;;;;;;;26.13;2.83;;;;;;;20.76;26.60;97965.41;5094557;28;20051;-45
2023/04/14 11:28:31;;;;;;;7.65;1.17;;;;;;;20.49;27.29;97955.28;5076349;28;20028;-44
2023/04/14 11:31:02;;;;;;;28.15;3.38;;;;;;;20.32;28.26;97951.19;5110111;28;20046;-45